createdAt,value
2019-03-03T00:00:40.808Z,99820.00
2019-03-03T00:03:09.526Z,99817.64
2019-03-03T00:05:38.243Z,99821.73
2019-03-03T00:08:07.061Z,99831.71
2019-03-03T00:10:35.883Z,99830.11
2019-03-03T00:13:04.600Z,99827.70
2019-03-03T00:15:33.472Z,99831.50
2019-03-03T00:18:02.200Z,99834.95
2019-03-03T00:20:31.727Z,99829.80
2019-03-03T00:23:00.561Z,99829.20
2019-03-03T00:25:29.278Z,99823.28
2019-03-03T00:27:57.999Z,99826.11
2019-03-03T00:30:26.770Z,99827.20
2019-03-03T00:32:55.501Z,99823.86
2019-03-03T00:35:24.209Z,99818.67
2019-03-03T00:38:11.069Z,99822.56
2019-03-03T00:40:47.118Z,99821.85
2019-03-03T00:43:33.823Z,99819.78
2019-03-03T00:46:04.130Z,99820.08
2019-03-03T00:48:51.337Z,99824.42
2019-03-03T00:51:21.623Z,99824.92
2019-03-03T00:53:58.016Z,99831.95
2019-03-03T00:56:31.047Z,99827.20
2019-03-03T00:59:07.409Z,99824.65
2019-03-03T01:01:38.403Z,99827.78
2019-03-03T01:04:08.702Z,99832.92
2019-03-03T01:06:41.922Z,99832.67
2019-03-03T01:09:39.987Z,99836.98
2019-03-03T01:12:13.125Z,99843.53
2019-03-03T01:14:59.579Z,99845.89
2019-03-03T01:17:29.914Z,99842.34
2019-03-03T01:20:00.235Z,99839.95
2019-03-03T01:22:33.251Z,99841.25
2019-03-03T01:25:02.134Z,99846.13
2019-03-03T01:27:30.843Z,99838.59
2019-03-03T01:29:59.568Z,99838.55
2019-03-03T01:32:28.451Z,99838.95
2019-03-03T01:34:57.668Z,99833.67
2019-03-03T01:37:26.385Z,99836.20
2019-03-03T01:39:58.343Z,99835.08
2019-03-03T01:42:27.072Z,99836.52
2019-03-03T01:44:55.796Z,99834.23
2019-03-03T01:47:24.673Z,99838.54
2019-03-03T01:49:53.397Z,99835.13
2019-03-03T01:52:22.111Z,99825.62
2019-03-03T01:54:50.891Z,99830.02
2019-03-03T01:57:19.611Z,99837.01
2019-03-03T01:59:48.414Z,99843.46
2019-03-03T02:02:17.201Z,99842.72
2019-03-03T02:04:45.927Z,99844.05
2019-03-03T02:07:14.685Z,99849.94
2019-03-03T02:09:43.655Z,99855.08
2019-03-03T02:12:12.376Z,99858.09
2019-03-03T02:14:41.098Z,99854.41
2019-03-03T02:17:11.455Z,99865.52
2019-03-03T02:19:40.178Z,99860.61
2019-03-03T02:22:09.000Z,99857.52
2019-03-03T02:24:37.947Z,99856.72
2019-03-03T02:27:06.660Z,99865.69
2019-03-03T02:29:35.481Z,99859.80
2019-03-03T02:32:05.579Z,99867.09
2019-03-03T02:34:34.297Z,99868.36
2019-03-03T02:37:03.021Z,99867.53
2019-03-03T02:39:31.828Z,99868.61
2019-03-03T02:42:00.556Z,99858.95
2019-03-03T02:44:29.274Z,99862.25
2019-03-03T02:46:58.047Z,99866.13
2019-03-03T02:49:26.769Z,99868.93
2019-03-03T02:51:55.494Z,99868.40
2019-03-03T02:54:24.372Z,99869.64
2019-03-03T02:56:53.089Z,99867.66
2019-03-03T02:59:21.818Z,99867.59
2019-03-03T03:01:52.361Z,99874.05
2019-03-03T03:04:23.120Z,99867.23
2019-03-03T03:06:53.411Z,99866.73
2019-03-03T03:09:23.788Z,99871.22
2019-03-03T03:12:02.928Z,99872.05
2019-03-03T03:14:33.275Z,99876.00
2019-03-03T03:17:09.850Z,99875.59
2019-03-03T03:19:40.576Z,99880.02
2019-03-03T03:22:10.877Z,99881.34
2019-03-03T03:24:43.915Z,99877.70
2019-03-03T03:27:23.505Z,99881.55
2019-03-03T03:29:53.799Z,99884.67
2019-03-03T03:32:36.317Z,99884.16
2019-03-03T03:35:14.613Z,99883.12
2019-03-03T03:37:45.061Z,99886.24
2019-03-03T03:40:22.027Z,99878.51
2019-03-03T03:43:01.718Z,99878.57
2019-03-03T03:45:43.805Z,99880.98
2019-03-03T03:48:20.360Z,99886.69
2019-03-03T03:50:50.614Z,99883.59
2019-03-03T03:53:26.958Z,99885.44
2019-03-03T03:56:03.225Z,99882.91
2019-03-03T03:58:33.638Z,99882.91
2019-03-03T04:01:03.893Z,99884.45
2019-03-03T04:03:46.530Z,99884.16
2019-03-03T04:06:16.785Z,99875.38
2019-03-03T04:09:03.438Z,99877.45
2019-03-03T04:11:33.685Z,99878.53
2019-03-03T04:14:20.374Z,99882.56
2019-03-03T04:16:53.568Z,99883.33
2019-03-03T04:19:23.837Z,99878.14
2019-03-03T04:21:54.241Z,99884.62
2019-03-03T04:24:27.203Z,99883.51
2019-03-03T04:27:14.011Z,99889.23
2019-03-03T04:29:44.415Z,99889.83
2019-03-03T04:32:17.618Z,99892.92
2019-03-03T04:35:05.936Z,99888.48
2019-03-03T04:37:42.859Z,99883.78
2019-03-03T04:40:13.267Z,99890.22
2019-03-03T04:42:49.726Z,99891.99
2019-03-03T04:45:35.028Z,99894.28
2019-03-03T04:48:14.162Z,99898.05
2019-03-03T04:51:01.028Z,99897.82
2019-03-03T04:53:47.505Z,99901.02
2019-03-03T04:56:33.075Z,99902.93
2019-03-03T04:59:03.324Z,99904.69
2019-03-03T05:01:45.995Z,99905.70
2019-03-03T05:04:34.322Z,99909.32
2019-03-03T05:07:04.611Z,99909.56
2019-03-03T05:09:34.867Z,99915.16
2019-03-03T05:12:24.243Z,99921.68
2019-03-03T05:14:54.491Z,99919.98
2019-03-03T05:17:41.184Z,99916.86
2019-03-03T05:20:11.835Z,99921.25
2019-03-03T05:22:40.523Z,99929.86
2019-03-03T05:25:09.262Z,99921.91
2019-03-03T05:27:39.039Z,99927.77
2019-03-03T05:30:10.792Z,99933.78
2019-03-03T05:32:39.580Z,99929.86
2019-03-03T05:35:09.168Z,99926.65
2019-03-03T05:37:37.958Z,99934.48
2019-03-03T05:40:08.290Z,99930.91
2019-03-03T05:42:36.969Z,99929.09
2019-03-03T05:45:07.048Z,99930.80
2019-03-03T05:47:36.098Z,99931.33
2019-03-03T05:50:06.084Z,99938.58
2019-03-03T05:52:34.762Z,99940.55
2019-03-03T05:55:03.792Z,99944.98
2019-03-03T05:57:32.467Z,99952.30
2019-03-03T06:00:01.151Z,99953.08
2019-03-03T06:02:30.874Z,99953.91
2019-03-03T06:04:59.548Z,99961.46
2019-03-03T06:07:28.226Z,99964.86
2019-03-03T06:09:57.154Z,99973.24
2019-03-03T06:12:25.857Z,99974.83
2019-03-03T06:14:54.566Z,99974.09
2019-03-03T06:17:23.397Z,99967.34
2019-03-03T06:19:52.075Z,99975.32
2019-03-03T06:22:20.759Z,99974.52
2019-03-03T06:24:49.588Z,99973.75
2019-03-03T06:27:18.265Z,99979.46
2019-03-03T06:29:46.949Z,99973.00
2019-03-03T06:32:15.698Z,99983.91
2019-03-03T06:34:44.444Z,99980.35
